Stations météo

Publicité
Nimes/Courbessac, France (7645): Température de l'air & dewpoint: 13.10.2017 21:00:00 - 19.10.2017 21:00:00 (CEST)Nimes/Courbessac, France (7645): Température de l'air 5cm: 13.10.2017 21:00:00 - 19.10.2017 21:00:00 (CEST)Nimes/Courbessac, France (7645): Température de l'air -20cm: 13.10.2017 21:00:00 - 19.10.2017 21:00:00 (CEST)Nimes/Courbessac, France (7645): Vitesse du vent & gusts: 13.10.2017 21:00:00 - 19.10.2017 21:00:00 (CEST)Nimes/Courbessac, France (7645): Direction du vent: 13.10.2017 21:00:00 - 19.10.2017 21:00:00 (CEST)Nimes/Courbessac, France (7645): reduced air pressure: 13.10.2017 21:00:00 - 19.10.2017 21:00:00 (CEST)Nimes/Courbessac, France (7645): Ensoleillement: 13.10.2017 21:00:00 - 19.10.2017 21:00:00 (CEST)Nimes/Courbessac, France (7645): Quantités de précipitations: 13.10.2017 21:00:00 - 19.10.2017 21:00:00 (CEST)
Date & Time tt [°C] td [°C] tt 5cm [°C] tt -20cm [°C] ff [km/h] ff [knt] fx [km/h] fx [knt] dd ppp [hPa] sd [min] rr [mm]
19.10.2017 21:00:00 19,5 11,0 17,5 20,7 5 3 20 11 ESE 1013,9 0 0,0
19.10.2017 20:00:00 19,6 12,6 18,2 20,6 4 2 9 5 SE 1013,4 0 0,0
19.10.2017 19:00:00 20,7 13,2 19,9 20,6 3 2 17 9 SW 1012,5 0 0,0
19.10.2017 18:00:00 21,3 13,2 21,5 20,4 15 8 29 16 SSE 1011,8 1 0,0
19.10.2017 17:00:00 22,0 13,1 22,1 20,4 21 12 42 23 SSE 1011,8 1 0,0
19.10.2017 16:00:00 22,0 13,6 22,7 20,2 23 12 35 19 SSE 1012,4 0 0,0
19.10.2017 15:00:00 23,0 13,2 23,8 20,1 19 10 29 15 S 1012,4 6 0,0
19.10.2017 14:00:00 22,1 12,6 23,6 20,1 14 8 34 19 SSE 1013,0 9 0,0
19.10.2017 13:00:00 21,8 12,4 21,7 20,0 20 11 34 18 SE 1013,7 0 0,0
19.10.2017 12:00:00 21,4 12,3 22,3 20,0 21 11 34 18 ESE 1014,3 8 0,0
19.10.2017 11:00:00 21,6 12,7 19,8 20,1 13 7 20 11 E 1013,9 15 0,0
19.10.2017 10:00:00 18,3 12,1 18,3 20,2 9 5 16 8 ENE 1014,2 3 0,0
19.10.2017 09:00:00 17,9 11,0 14,6 20,3 7 4 11 6 ENE 1014,0 19 0,0
19.10.2017 08:00:00 15,7 10,7 12,6 20,3 6 3 10 6 ENE 1014,0 0 0,0
19.10.2017 07:00:00 16,2 10,5 14,2 20,4 3 2 16 9 NE 1014,2 0 0,0
19.10.2017 06:00:00 17,1 10,7 16,1 20,5 8 4 13 7 ENE 1014,0 0 0,0
19.10.2017 05:00:00 16,9 11,2 15,8 20,5 6 4 19 10 ENE 1014,1 0 0,0
19.10.2017 04:00:00 17,3 12,0 16,5 20,6 10 5 14 8 NE 1013,6 0 0,0
19.10.2017 03:00:00 17,0 12,1 16,6 20,6 11 6 16 8 E 1014,4 0 0,0
19.10.2017 02:00:00 17,2 11,9 16,8 20,6 9 5 19 11 E 1014,7 0 0,0
19.10.2017 01:00:00 18,1 12,3 18,0 20,6 14 7 24 13 ESE 1015,1 0 0,0
19.10.2017 00:00:00 18,4 13,5 18,1 20,6 15 8 29 16 ESE 1015,3 0 0,0
18.10.2017 23:00:00 18,6 14,3 18,4 20,7 16 9 26 14 ESE 1015,3 0 0,0
18.10.2017 22:00:00 19,0 14,5 18,8 20,7 13 7 27 14 SE 1015,3 0 0,0
18.10.2017 21:00:00 19,4 14,9 19,3 20,6 16 8 26 14 SSE 1015,3 0 0,0
18.10.2017 20:00:00 19,5 14,9 19,4 20,6 14 8 34 18 SE 1015,2 0 0,0
18.10.2017 19:00:00 19,9 15,1 19,8 20,5 19 11 43 23 SE 1014,3 0 0,0
18.10.2017 18:00:00 20,2 15,2 19,8 20,4 22 12 51 28 SSE 1014,3 0 0,0
18.10.2017 17:00:00 20,1 15,3 18,9 20,3 29 15 44 24 SSE 1014,6 0 0,0
18.10.2017 16:00:00 21,3 14,7 21,8 20,2 28 15 44 24 SE 1014,7 7 0,0
18.10.2017 15:00:00 21,9 14,5 21,4 20,1 26 14 41 22 SE 1015,3 1 0,0
18.10.2017 14:00:00 21,6 13,8 23,0 19,9 26 14 45 25 SE 1016,4 8 0,0
18.10.2017 13:00:00 21,3 13,5 22,3 19,9 31 17 47 25 SSE 1017,2 33 0,0
18.10.2017 12:00:00 21,1 13,3 21,6 19,9 25 13 40 21 SE 1017,6 39 0,0
18.10.2017 11:00:00 20,0 12,7 18,5 19,9 17 9 29 16 SSE 1018,2 42 0,0
18.10.2017 10:00:00 16,7 11,2 15,5 20,0 10 5 21 11 ESE 1018,4 7 0,0
18.10.2017 09:00:00 15,3 9,6 14,5 20,0 9 5 14 8 E 1018,5 0 0,0
18.10.2017 08:00:00 15,1 10,3 14,7 20,1 6 3 10 6 ENE 1018,4 0 0,0
18.10.2017 07:00:00 14,8 11,0 14,4 20,2 6 3 12 7 ENE 1018,7 0 0,0
18.10.2017 06:00:00 14,6 11,9 14,6 20,2 6 4 14 8 E 1019,1 0 0,0
18.10.2017 05:00:00 14,9 13,1 13,9 20,3 6 3 18 10 ENE 1019,6 0 0,0
18.10.2017 04:00:00 14,6 13,3 13,6 20,3 7 4 13 7 ENE 1020,1 0 0,0
18.10.2017 03:00:00 15,2 13,4 14,5 20,4 10 5 19 11 ENE 1020,5 0 0,0
18.10.2017 02:00:00 16,5 14,5 16,4 20,4 11 6 21 12 E 1021,0 0 0,0
18.10.2017 01:00:00 16,6 14,6 16,6 20,4 9 5 13 7 ENE 1021,4 0 0,0
18.10.2017 00:00:00 16,7 14,9 16,4 20,5 9 5 14 7 ENE 1021,8 0 0,0
17.10.2017 23:00:00 16,6 15,0 14,9 20,5 3 2 7 4 ENE 1022,1 0 0,0
17.10.2017 22:00:00 16,6 14,4 16,0 20,6 5 3 9 5 E 1021,9 0 0,0
17.10.2017 21:00:00 16,4 14,1 12,4 20,5 3 2 5 3 NE 1021,8 0 0,0
17.10.2017 20:00:00 16,4 13,1 13,2 20,5 2 1 9 5 S 1022,0 0 0,0
17.10.2017 19:00:00 18,4 13,7 17,1 20,4 7 4 20 11 S 1021,6 33 0,0
17.10.2017 18:00:00 20,4 13,8 20,7 20,2 10 5 23 12 S 1021,8 38 0,0
17.10.2017 17:00:00 21,9 13,3 25,5 20,0 14 8 25 14 S 1022,1 60 0,0
17.10.2017 16:00:00 22,7 12,9 26,2 19,9 11 6 28 15 S 1022,4 53 0,0
17.10.2017 15:00:00 22,0 12,8 24,6 19,7 12 7 31 17 SSW 1023,1 47 0,0
17.10.2017 14:00:00 21,0 12,9 24,0 19,6 8 4 24 13 SSW 1024,1 32 0,0
17.10.2017 13:00:00 20,4 13,1 25,1 19,6 4 2 12 6 S 1024,9 60 0,0
17.10.2017 12:00:00 16,8 13,3 16,2 19,6 3 2 9 5 WSW 1025,5 22 0,0
17.10.2017 11:00:00 13,7 13,1 14,3 19,6 4 2 9 5 NNE 1026,1 0 0,0
17.10.2017 10:00:00 13,2 12,7 13,6 19,7 5 3 10 6 NE 1025,9 0 0,0
17.10.2017 09:00:00 13,0 12,5 13,1 19,8 6 3 10 5 N 1025,8 0 0,0
17.10.2017 08:00:00 13,5 13,0 13,5 19,9 5 3 9 5 N 1025,6 0 0,0
17.10.2017 07:00:00 13,5 13,0 13,4 20,0 5 3 10 5 N 1025,6 0 0,0
17.10.2017 06:00:00 13,8 13,3 12,7 20,1 3 2 7 4 N 1025,6 0 0,0
17.10.2017 05:00:00 12,3 11,8 10,5 20,2 4 2 7 4 N 1025,8 0 0,2
17.10.2017 04:00:00 11,4 10,6 7,7 20,4 5 3 8 5 NNW 1026,4 0 0,0
17.10.2017 03:00:00 10,6 9,5 8,0 20,5 3 1 6 4 NNW 1026,8 0 0,0
17.10.2017 02:00:00 11,3 10,2 10,1 20,7 5 3 9 5 NNW 1027,1 0 0,0
17.10.2017 01:00:00 11,5 10,4 8,9 20,8 5 3 9 5 NNW 1027,5 0 0,0
17.10.2017 00:00:00 11,8 10,4 9,7 20,9 4 2 8 5 N 1027,4 0 0,0
16.10.2017 23:00:00 12,7 10,6 10,3 21,0 3 2 8 4 NNW 1027,4 0 0,0
16.10.2017 22:00:00 13,7 11,2 11,1 21,0 0 0 8 4 N 1027,1 0 0,0
16.10.2017 21:00:00 15,8 12,4 12,6 21,0 2 1 12 6 NNW 1027,1 0 0,0
16.10.2017 20:00:00 18,3 14,2 17,4 21,0 7 4 16 9 SW 1026,9 0 0,0
16.10.2017 19:00:00 19,7 13,4 18,3 20,8 8 4 13 7 SSW 1026,5 5 0,0
16.10.2017 18:00:00 21,5 12,9 21,6 20,7 9 5 21 12 S 1026,3 32 0,0
16.10.2017 17:00:00 23,8 13,1 27,3 20,5 10 5 18 10 S 1026,4 60 0,0
16.10.2017 16:00:00 24,4 12,4 28,9 20,3 6 3 22 12 SW 1026,7 58 0,0
16.10.2017 15:00:00 23,3 12,9 28,6 20,1 5 3 19 10 SSW 1027,5 55 0,0
16.10.2017 14:00:00 23,7 13,0 26,9 20,0 6 4 18 10 SSE 1028,2 60 0,0
16.10.2017 13:00:00 21,4 13,6 23,2 20,0 3 1 14 8 W 1028,8 14 0,0
16.10.2017 12:00:00 20,8 13,7 21,7 20,0 6 3 16 8 SE 1029,1 30 0,0
16.10.2017 11:00:00 19,5 14,5 19,2 20,0 9 5 14 8 E 1029,3 11 0,0
16.10.2017 10:00:00 17,1 14,4 15,0 20,1 5 3 8 4 NE 1029,1 16 0,0
16.10.2017 09:00:00 14,4 13,1 13,0 20,2 0 0 6 3 N 1028,6 2 0,0
16.10.2017 08:00:00 14,0 12,9 10,7 20,4 3 2 8 4 NNE 1027,9 0 0,0
16.10.2017 07:00:00 12,8 11,9 10,4 20,5 4 2 7 4 N 1027,6 0 0,0
16.10.2017 06:00:00 13,3 12,4 11,6 20,6 4 2 6 4 N 1027,6 0 0,0
16.10.2017 05:00:00 13,6 12,7 12,4 20,7 4 2 8 4 N 1027,5 0 0,0
16.10.2017 04:00:00 13,6 12,7 12,2 20,9 5 3 8 4 NNW 1027,8 0 0,0
16.10.2017 03:00:00 13,4 12,3 11,3 21,0 4 2 8 5 NNW 1028,2 0 0,0
16.10.2017 02:00:00 13,0 11,7 11,6 21,2 4 2 8 4 NNW 1028,3 0 0,0
16.10.2017 01:00:00 13,5 12,1 12,2 21,3 5 3 8 4 NNW 1028,6 0 0,0
16.10.2017 00:00:00 14,0 12,4 11,4 21,4 5 3 8 4 NNW 1028,7 0 0,0
15.10.2017 23:00:00 14,4 12,4 11,6 21,4 5 3 6 3 NNW 1028,6 0 0,0
15.10.2017 22:00:00 15,6 12,9 13,1 21,5 3 2 6 4 NNW 1028,5 0 0,0
15.10.2017 21:00:00 17,4 13,5 14,4 21,5 3 1 9 5 WSW 1028,3 0 0,0
15.10.2017 20:00:00 19,3 14,5 18,1 21,4 6 3 14 7 WSW 1028,0 0 0,0
15.10.2017 19:00:00 20,6 14,7 19,8 21,2 9 5 19 10 SSW 1027,5 36 0,0
15.10.2017 18:00:00 23,1 14,4 24,5 21,0 11 6 21 12 SSW 1027,2 51 0,0
15.10.2017 17:00:00 24,1 14,2 26,6 20,8 11 6 22 12 SSW 1027,1 34 0,0
15.10.2017 16:00:00 25,3 13,8 30,9 20,6 13 7 64 35 SSW 1027,4 56 0,0
15.10.2017 15:00:00 25,4 13,3 27,1 20,5 8 5 16 8 SSW 1027,7 29 0,0
15.10.2017 14:00:00 24,4 13,6 27,2 20,3 7 4 19 10 SSE 1028,5 25 0,0
15.10.2017 13:00:00 24,5 13,4 29,7 20,3 10 6 19 11 SSE 1029,2 60 0,0
15.10.2017 12:00:00 22,6 13,6 24,9 20,2 6 4 14 8 S 1029,6 37 0,0
15.10.2017 11:00:00 20,7 13,4 20,4 20,2 3 2 10 5 E 1029,8 26 0,0
15.10.2017 10:00:00 18,3 13,2 18,7 20,3 6 4 12 7 E 1029,7 17 0,0
15.10.2017 09:00:00 16,5 13,0 14,7 20,4 5 3 8 5 E 1029,4 23 0,0
15.10.2017 08:00:00 15,0 12,3 14,7 20,4 2 1 6 4 SE 1029,2 0 0,0
15.10.2017 07:00:00 15,9 13,2 15,5 20,5 4 2 7 4 E 1028,9 0 0,0
15.10.2017 06:00:00 15,7 13,0 15,4 20,5 3 2 9 5 NE 1028,9 0 0,0
15.10.2017 05:00:00 15,4 12,9 15,3 20,6 3 2 5 3 ENE 1028,8 0 0,0
15.10.2017 04:00:00 15,7 13,0 14,9 20,7 2 1 9 5 SSE 1028,6 0 0,0
15.10.2017 03:00:00 14,9 12,2 14,2 20,8 0 0 4 2 N 1028,8 0 0,0
15.10.2017 02:00:00 14,7 11,7 14,1 20,9 0 0 4 2 N 1028,9 0 0,0
15.10.2017 01:00:00 15,4 12,7 15,1 20,9 0 0 5 3 N 1028,8 0 0,0
15.10.2017 00:00:00 15,6 12,7 14,2 21,0 4 2 9 5 NNW 1028,6 0 0,0
14.10.2017 23:00:00 15,4 12,2 14,3 21,1 5 3 14 7 NNW 1028,5 0 0,0
14.10.2017 22:00:00 15,1 11,9 13,9 21,2 7 4 10 6 NNW 1028,3 0 0,0
14.10.2017 21:00:00 15,3 11,9 14,0 21,2 5 3 9 5 NNW 1028,3 0 0,0
14.10.2017 20:00:00 16,4 12,2 14,0 21,1 4 2 6 3 NNW 1027,8 0 0,0
14.10.2017 19:00:00 19,1 12,6 16,5 21,0 3 2 10 6 SSE 1027,3 16 0,0
14.10.2017 18:00:00 22,0 13,6 22,9 20,9 3 2 12 7 WSW 1027,2 41 0,0
14.10.2017 17:00:00 21,6 13,2 23,3 20,8 10 5 19 10 SSW 1027,4 18 0,0
14.10.2017 16:00:00 21,4 13,6 24,1 20,7 8 4 16 9 SW 1027,4 1 0,0
14.10.2017 15:00:00 21,3 13,5 23,8 20,6 4 2 13 7 S 1027,8 0 0,0
14.10.2017 14:00:00 21,2 13,4 23,3 20,6 5 3 13 7 SSW 1028,3 0 0,0
14.10.2017 13:00:00 20,3 13,7 21,2 20,6 6 3 14 7 ESE 1028,8 0 0,0
14.10.2017 12:00:00 19,8 13,9 20,6 20,6 8 4 13 7 ESE 1029,1 0 0,0
14.10.2017 11:00:00 19,0 14,5 19,5 20,6 7 4 11 6 E 1029,1 0 0,0
14.10.2017 10:00:00 18,3 14,6 18,1 20,6 0 0 7 4 N 1028,6 0 0,0
14.10.2017 09:00:00 17,7 14,4 17,4 20,7 5 3 7 4 NNW 1027,9 0 0,0
14.10.2017 08:00:00 17,5 14,6 17,3 20,7 4 2 7 4 NNW 1027,2 0 0,0
14.10.2017 07:00:00 17,4 14,7 17,3 20,8 0 0 4 2 N 1027,0 0 0,0
14.10.2017 06:00:00 17,5 15,1 17,4 20,8 2 1 5 3 ENE 1027,0 0 0,0
14.10.2017 05:00:00 17,6 15,2 17,5 20,8 3 2 5 3 NE 1027,0 0 0,0
14.10.2017 04:00:00 17,7 15,5 17,6 20,8 4 2 6 3 ESE 1027,1 0 0,0
14.10.2017 03:00:00 18,0 15,6 17,8 20,9 3 2 9 5 ESE 1027,2 0 0,0
14.10.2017 02:00:00 17,8 15,2 17,6 20,9 3 2 8 5 NNW 1027,2 0 0,0
14.10.2017 01:00:00 17,8 15,2 17,6 21,0 0 0 7 4 N 1027,1 0 0,0
14.10.2017 00:00:00 18,0 15,4 17,3 21,0 0 0 6 3 N 1027,1 0 0,0
13.10.2017 23:00:00 17,8 15,4 15,8 21,0 2 1 7 4 S 1027,0 0 0,0
13.10.2017 22:00:00 16,8 15,0 15,1 21,1 0 0 8 4 N 1026,6 0 0,0
13.10.2017 21:00:00 16,7 15,1 13,7 21,1 2 1 9 5 SSW 1026,4 0 0,0

tt = Température de l'air
td = dewpoint
tt 5cm = Température de l'air 5cm
tt -20cm = Température de l'air -20cm
ff = Vitesse du vent
fx = gusts
dd = Direction du vent
ppp = reduced air pressure
sd = Ensoleillement
rr = Quantités de précipitations

stations d'obs. à proximité